Terminal Aerodrome Forecast
Issued by NWS Shreveport, LA

Home | Current Version | Previous Version | Text Only | Print | Product List | Glossary On
Versions: 1 2 3 4 5 6 7 8 9 10 11 12 13 14 15
814
FTUS44 KSHV 141158
TAFSHV
TAF
KSHV 141158Z 1412/1512 13007KT P6SM BKN025 OVC035
     FM141500 17010KT P6SM OVC020
     FM141800 17011G16KT P6SM OVC015
     FM150000 16008KT 5SM BR VCSH OVC010
     FM150900 18008KT 5SM -RA BR OVC004=

USA.gov is the U.S. government's official web portal to all federal, state and local government web resources and services.